Time;durP1;ratioP1;P1;durP2;ratioP2;P2;SDS_P1;SDS_P2;PMS_P1;PMS_P2;Temp;Humidity;BMP_temperature;BMP_pressure;BME280_temperature;BME280_humidity;BME280_pressure;Samples;Min_cycle;Max_cycle;Signal;HPM_P1;HPM_P2
2022/03/05 00:00:22;;;;;;;;;;;5.10;99.90;;;;;;5028296;28;20025;-60
2022/03/05 00:02:49;;;;;;;0.00;0.00;;;5.20;99.90;;;;;;5032103;28;19940;-61
2022/03/05 00:05:15;;;;;;;0.00;0.00;;;5.00;99.90;;;;;;5032082;28;20025;-57
2022/03/05 00:07:40;;;;;;;0.00;0.00;;;5.00;99.90;;;;;;5029829;28;20029;-60
2022/03/05 00:10:06;;;;;;;0.00;0.00;;;5.00;99.90;;;;;;5016071;28;20037;-62
2022/03/05 00:12:32;;;;;;;;;;;4.90;99.90;;;;;;5032351;28;20029;-60
2022/03/05 00:14:58;;;;;;;0.00;0.00;;;4.90;99.90;;;;;;5034445;28;20272;-61
2022/03/05 00:17:24;;;;;;;0.00;0.00;;;4.80;99.90;;;;;;5020297;28;20024;-60
2022/03/05 00:19:50;;;;;;;0.00;0.00;;;4.90;99.90;;;;;;5038719;28;20029;-60
2022/03/05 00:22:15;;;;;;;0.00;0.00;;;4.90;99.90;;;;;;5035764;28;20422;-61
2022/03/05 00:24:41;;;;;;;0.00;0.00;;;4.90;99.90;;;;;;5037119;28;20020;-61
2022/03/05 00:27:08;;;;;;;0.00;0.00;;;4.90;99.90;;;;;;5034290;28;20312;-67
2022/03/05 00:29:34;;;;;;;0.00;0.00;;;4.90;99.90;;;;;;5032319;28;20026;-61
2022/03/05 00:31:59;;;;;;;0.00;0.00;;;4.90;99.90;;;;;;5034097;28;20379;-60
2022/03/05 00:34:25;;;;;;;0.00;0.00;;;5.00;99.90;;;;;;5037177;28;20036;-60
2022/03/05 00:36:51;;;;;;;0.00;0.00;;;5.00;99.90;;;;;;5019606;28;20041;-61
2022/03/05 00:39:16;;;;;;;0.00;0.00;;;5.10;99.90;;;;;;5032101;28;20050;-59
2022/03/05 00:41:42;;;;;;;0.00;0.00;;;5.00;99.90;;;;;;5009965;28;20030;-60
2022/03/05 00:44:08;;;;;;;0.00;0.00;;;5.00;99.90;;;;;;5015267;28;20116;-61
2022/03/05 00:46:33;;;;;;;0.00;0.00;;;5.00;99.90;;;;;;5025348;28;20022;-59
2022/03/05 00:48:59;;;;;;;0.00;0.00;;;5.10;99.90;;;;;;5027606;28;20514;-61
2022/03/05 00:51:25;;;;;;;0.00;0.00;;;5.10;99.90;;;;;;5034421;28;20549;-61
2022/03/05 00:53:50;;;;;;;0.00;0.00;;;5.00;99.90;;;;;;5016887;28;20060;-61
2022/03/05 00:56:16;;;;;;;0.00;0.00;;;5.10;99.90;;;;;;5036656;28;20022;-62
2022/03/05 00:58:42;;;;;;;0.00;0.00;;;5.10;99.90;;;;;;5036216;28;20032;-60
2022/03/05 01:01:07;;;;;;;0.00;0.00;;;5.10;99.90;;;;;;5047760;28;20066;-61
2022/03/05 01:03:33;;;;;;;0.00;0.00;;;5.10;99.90;;;;;;5019525;28;20505;-59
2022/03/05 01:05:59;;;;;;;0.00;0.00;;;5.00;99.90;;;;;;5028447;28;20496;-61
2022/03/05 01:08:25;;;;;;;0.00;0.00;;;5.00;99.90;;;;;;5030169;28;20018;-60
2022/03/05 01:10:51;;;;;;;0.00;0.00;;;5.00;99.90;;;;;;5033492;28;20388;-61
2022/03/05 01:13:17;;;;;;;0.00;0.00;;;4.90;99.90;;;;;;5028976;28;20029;-59
2022/03/05 01:15:42;;;;;;;0.00;0.00;;;4.80;99.90;;;;;;5016768;28;20048;-61
2022/03/05 01:18:08;;;;;;;0.00;0.00;;;4.70;99.90;;;;;;5020729;28;20160;-60
2022/03/05 01:20:34;;;;;;;;;;;4.50;99.90;;;;;;5010154;28;20037;-60
2022/03/05 01:23:00;;;;;;;0.00;0.00;;;4.50;99.90;;;;;;5021010;28;19917;-58
2022/03/05 01:25:26;;;;;;;0.00;0.00;;;4.40;99.90;;;;;;5036017;28;20021;-59
2022/03/05 01:27:52;;;;;;;0.00;0.00;;;4.40;99.90;;;;;;5022755;28;20037;-60
2022/03/05 01:30:17;;;;;;;0.00;0.00;;;4.30;99.90;;;;;;5032422;28;20049;-61
2022/03/05 01:32:43;;;;;;;0.00;0.00;;;4.30;99.90;;;;;;5028875;28;20033;-58
2022/03/05 01:35:09;;;;;;;0.00;0.00;;;4.30;99.90;;;;;;5033677;28;20562;-60
2022/03/05 01:37:35;;;;;;;0.00;0.00;;;4.30;99.90;;;;;;5032468;28;20037;-60
2022/03/05 01:40:02;;;;;;;0.00;0.00;;;4.30;99.90;;;;;;5036339;28;20411;-59
2022/03/05 01:42:27;;;;;;;0.00;0.00;;;4.20;99.90;;;;;;5029278;28;20037;-60
2022/03/05 01:44:53;;;;;;;0.00;0.00;;;4.30;99.90;;;;;;5036062;28;20029;-60
2022/03/05 01:47:19;;;;;;;0.00;0.00;;;4.30;99.90;;;;;;5031238;28;20112;-58
2022/03/05 01:49:45;;;;;;;0.00;0.00;;;4.30;99.90;;;;;;5033204;28;20032;-57
2022/03/05 01:52:11;;;;;;;0.00;0.00;;;4.20;99.90;;;;;;5033263;28;20034;-60
2022/03/05 01:54:38;;;;;;;0.00;0.00;;;4.20;99.90;;;;;;5034378;28;20029;-57
2022/03/05 01:57:04;;;;;;;0.00;0.00;;;4.10;99.90;;;;;;5031193;28;20030;-61
2022/03/05 01:59:30;;;;;;;0.00;0.00;;;4.20;99.90;;;;;;5030257;28;20029;-59
2022/03/05 02:01:55;;;;;;;0.00;0.00;;;4.20;99.90;;;;;;5027564;28;20029;-60
2022/03/05 02:04:21;;;;;;;0.00;0.00;;;4.20;99.90;;;;;;5019002;28;20025;-59
2022/03/05 02:06:47;;;;;;;0.00;0.00;;;4.30;99.90;;;;;;5040491;28;20026;-61
2022/03/05 02:09:13;;;;;;;;;;;4.40;99.90;;;;;;5035312;28;20029;-61
2022/03/05 02:11:39;;;;;;;0.00;0.00;;;4.40;99.90;;;;;;5037095;28;19920;-60
2022/03/05 02:14:05;;;;;;;0.00;0.00;;;4.40;99.90;;;;;;5042466;28;20036;-60
2022/03/05 02:16:31;;;;;;;0.00;0.00;;;4.40;99.90;;;;;;5042640;28;20025;-60
2022/03/05 02:18:57;;;;;;;0.00;0.00;;;4.40;99.90;;;;;;5041564;28;20427;-59
2022/03/05 02:21:25;;;;;;;0.00;0.00;;;4.50;99.90;;;;;;5035979;28;20025;-59
2022/03/05 02:23:51;;;;;;;0.00;0.00;;;4.40;99.90;;;;;;5043141;28;20108;-60
2022/03/05 02:26:17;;;;;;;0.00;0.00;;;4.50;99.90;;;;;;5015897;28;20064;-57
2022/03/05 02:28:43;;;;;;;0.00;0.00;;;4.50;99.90;;;;;;5033452;28;20041;-59
2022/03/05 02:31:09;;;;;;;0.00;0.00;;;4.50;99.90;;;;;;5039898;28;20091;-60
2022/03/05 02:33:35;;;;;;;0.00;0.00;;;4.40;99.90;;;;;;5041801;28;20045;-60
2022/03/05 02:36:03;;;;;;;0.00;0.00;;;4.40;99.90;;;;;;5040510;28;20032;-60
2022/03/05 02:38:29;;;;;;;0.00;0.00;;;4.50;99.90;;;;;;5041138;28;20033;-60
2022/03/05 02:40:55;;;;;;;0.00;0.00;;;4.30;99.90;;;;;;5038023;28;20029;-60
2022/03/05 02:43:21;;;;;;;0.00;0.00;;;4.40;99.90;;;;;;5035733;28;20089;-61
2022/03/05 02:45:47;;;;;;;0.00;0.00;;;4.50;99.90;;;;;;5028390;28;20036;-60
2022/03/05 02:48:15;;;;;;;0.00;0.00;;;4.50;99.90;;;;;;5017710;28;20056;-59
2022/03/05 02:50:43;;;;;;;0.00;0.00;;;4.50;99.90;;;;;;5035556;28;20033;-60
2022/03/05 02:53:09;;;;;;;0.00;0.00;;;4.40;99.90;;;;;;5034921;28;20083;-60
2022/03/05 02:55:35;;;;;;;0.00;0.00;;;4.40;99.90;;;;;;5013822;28;20038;-59
2022/03/05 02:58:02;;;;;;;0.00;0.00;;;4.40;99.90;;;;;;5028411;28;20116;-61
2022/03/05 03:00:28;;;;;;;0.00;0.00;;;4.40;99.90;;;;;;5034465;28;20071;-63
2022/03/05 03:02:53;;;;;;;0.00;0.00;;;4.20;99.90;;;;;;5034672;28;20029;-60
2022/03/05 03:05:19;;;;;;;0.00;0.00;;;4.10;99.90;;;;;;5034667;28;20062;-60
2022/03/05 03:07:45;;;;;;;;;;;4.00;99.90;;;;;;5035080;28;20539;-60
2022/03/05 03:10:12;;;;;;;0.00;0.00;;;4.00;99.90;;;;;;5037290;28;19944;-61
2022/03/05 03:12:39;;;;;;;0.00;0.00;;;3.90;99.90;;;;;;5035774;28;20060;-61
2022/03/05 03:15:06;;;;;;;0.00;0.00;;;3.70;99.90;;;;;;5035631;28;20038;-61
2022/03/05 03:17:44;;;;;;;0.00;0.00;;;3.70;99.90;;;;;;5039448;28;20040;-61
2022/03/05 03:20:13;;;;;;;0.00;0.00;;;3.90;99.90;;;;;;5039027;28;20026;-61
2022/03/05 03:22:39;;;;;;;0.00;0.00;;;3.80;99.90;;;;;;5035072;28;20084;-60
2022/03/05 03:25:06;;;;;;;0.00;0.00;;;3.80;99.90;;;;;;5038394;28;20052;-61
2022/03/05 03:27:32;;;;;;;0.00;0.00;;;3.70;99.90;;;;;;5037881;28;20026;-60
2022/03/05 03:29:58;;;;;;;0.00;0.00;;;3.70;99.90;;;;;;5036022;28;20052;-61
2022/03/05 03:32:23;;;;;;;0.00;0.00;;;3.80;99.90;;;;;;5038279;28;20077;-61
2022/03/05 03:34:49;;;;;;;0.00;0.00;;;3.80;99.90;;;;;;5040373;28;20037;-60
2022/03/05 03:37:15;;;;;;;;;;;3.80;99.90;;;;;;5039260;28;20036;-61
2022/03/05 03:39:41;;;;;;;0.00;0.00;;;3.70;99.90;;;;;;5036027;28;19910;-60
2022/03/05 03:42:07;;;;;;;0.00;0.00;;;3.60;99.90;;;;;;5038130;28;20021;-60
2022/03/05 03:44:33;;;;;;;0.00;0.00;;;3.60;99.90;;;;;;5040401;28;20061;-61
2022/03/05 03:46:58;;;;;;;;;;;3.60;99.90;;;;;;5040013;28;20029;-60
2022/03/05 03:49:24;;;;;;;0.00;0.00;;;3.60;99.90;;;;;;5040180;28;19909;-60
2022/03/05 03:51:50;;;;;;;0.00;0.00;;;3.70;99.90;;;;;;5034074;28;20048;-60
2022/03/05 03:54:16;;;;;;;;;;;3.80;99.90;;;;;;5038330;28;20033;-61
2022/03/05 03:56:41;;;;;;;0.00;0.00;;;3.90;99.90;;;;;;5039155;28;20429;-60
2022/03/05 03:59:07;;;;;;;0.00;0.00;;;4.00;99.90;;;;;;5032019;28;20034;-60
2022/03/05 04:01:33;;;;;;;;;;;3.90;99.90;;;;;;5024158;28;20116;-61
2022/03/05 04:03:59;;;;;;;0.00;0.00;;;3.90;99.90;;;;;;5036368;28;19956;-59
2022/03/05 04:06:25;;;;;;;0.00;0.00;;;3.90;99.90;;;;;;5037260;28;20413;-60
2022/03/05 04:08:50;;;;;;;0.00;0.00;;;4.00;99.90;;;;;;5033224;28;20075;-61
2022/03/05 04:11:19;;;;;;;;;;;4.10;99.90;;;;;;5027938;28;20093;-60
2022/03/05 04:13:47;;;;;;;0.00;0.00;;;4.30;99.90;;;;;;5031287;28;19948;-60
2022/03/05 04:16:13;;;;;;;0.00;0.00;;;4.30;99.90;;;;;;5029832;28;20034;-60
2022/03/05 04:18:40;;;;;;;0.00;0.00;;;4.20;99.90;;;;;;5030030;28;20026;-60
2022/03/05 04:21:09;;;;;;;0.00;0.00;;;4.30;99.90;;;;;;5008552;28;20034;-60
2022/03/05 04:23:35;;;;;;;0.00;0.00;;;4.30;99.90;;;;;;5036389;28;20029;-61
2022/03/05 04:26:01;;;;;;;0.00;0.00;;;4.50;99.90;;;;;;5032455;28;20017;-60
2022/03/05 04:28:26;;;;;;;0.00;0.00;;;4.50;99.90;;;;;;5028400;28;20121;-60
2022/03/05 04:30:52;;;;;;;0.00;0.00;;;4.60;99.90;;;;;;5029960;28;20096;-60
2022/03/05 04:33:18;;;;;;;;;;;4.50;99.90;;;;;;5035795;28;20033;-61
2022/03/05 04:35:44;;;;;;;0.00;0.00;;;4.60;99.90;;;;;;5031345;28;20367;-60
2022/03/05 04:38:09;;;;;;;0.00;0.00;;;4.60;99.90;;;;;;5029891;28;20037;-61
2022/03/05 04:40:35;;;;;;;0.00;0.00;;;4.70;99.90;;;;;;5033805;28;20104;-61
2022/03/05 04:43:02;;;;;;;0.00;0.00;;;4.70;99.90;;;;;;5034423;28;20052;-60
2022/03/05 04:45:28;;;;;;;0.00;0.00;;;4.80;99.90;;;;;;5035051;28;20033;-61
2022/03/05 04:47:54;;;;;;;;;;;4.80;99.90;;;;;;5028086;28;20397;-60
2022/03/05 04:50:23;;;;;;;0.00;0.00;;;4.80;99.90;;;;;;5029923;28;19916;-60
2022/03/05 04:52:48;;;;;;;0.00;0.00;;;4.80;99.90;;;;;;5033165;28;20030;-60
2022/03/05 04:55:14;;;;;;;0.00;0.00;;;4.70;99.90;;;;;;5023445;28;20056;-62
2022/03/05 04:57:40;;;;;;;0.00;0.00;;;4.70;99.90;;;;;;5033013;28;20033;-60
2022/03/05 05:00:07;;;;;;;0.00;0.00;;;4.50;99.90;;;;;;5035366;28;20605;-60
2022/03/05 05:02:33;;;;;;;0.00;0.00;;;4.50;99.90;;;;;;5036828;28;20036;-60
2022/03/05 05:04:59;;;;;;;;;;;4.40;99.90;;;;;;5037618;28;20104;-60
2022/03/05 05:07:25;;;;;;;0.00;0.00;;;4.30;99.90;;;;;;5035258;28;19958;-59
2022/03/05 05:09:50;;;;;;;0.00;0.00;;;4.40;99.90;;;;;;5035504;28;20471;-61
2022/03/05 05:12:16;;;;;;;0.00;0.00;;;4.30;99.90;;;;;;5039271;28;20034;-60
2022/03/05 05:14:42;;;;;;;0.00;0.00;;;4.40;99.90;;;;;;5031290;28;20037;-61
2022/03/05 05:17:07;;;;;;;;;;;4.30;99.90;;;;;;5017287;28;20025;-60
2022/03/05 05:19:33;;;;;;;0.00;0.00;;;4.30;99.90;;;;;;5033544;28;19909;-60
2022/03/05 05:22:01;;;;;;;0.00;0.00;;;4.30;99.90;;;;;;5033296;28;20040;-60
2022/03/05 05:24:30;;;;;;;0.00;0.00;;;4.10;99.90;;;;;;5023773;28;20033;-61
2022/03/05 05:26:56;;;;;;;0.00;0.00;;;4.10;99.90;;;;;;5031042;28;20022;-60
2022/03/05 05:29:22;;;;;;;0.00;0.00;;;4.20;99.90;;;;;;5036041;28;20041;-61
2022/03/05 05:31:49;;;;;;;0.00;0.00;;;4.00;99.90;;;;;;5048933;28;20058;-61
2022/03/05 05:34:15;;;;;;;0.00;0.00;;;3.90;99.90;;;;;;5054153;28;20078;-59
2022/03/05 05:36:41;;;;;;;;;;;3.90;99.90;;;;;;5054828;28;20029;-61
2022/03/05 05:39:07;;;;;;;0.00;0.00;;;3.80;99.90;;;;;;5051537;28;19908;-60
2022/03/05 05:41:34;;;;;;;0.00;0.00;;;3.80;99.90;;;;;;5052084;28;20289;-61
2022/03/05 05:44:02;;;;;;;0.00;0.00;;;4.00;99.90;;;;;;5048973;28;20029;-59
2022/03/05 05:46:27;;;;;;;0.00;0.00;;;3.90;99.90;;;;;;5045657;28;20052;-60
2022/03/05 05:48:55;;;;;;;0.00;0.00;;;3.80;99.90;;;;;;5032457;28;20045;-60
2022/03/05 05:51:21;;;;;;;0.00;0.00;;;3.90;99.90;;;;;;5039615;28;20025;-61
2022/03/05 05:53:46;;;;;;;0.00;0.00;;;3.90;99.90;;;;;;5050264;28;20513;-61
2022/03/05 05:56:12;;;;;;;0.00;0.00;;;3.90;99.90;;;;;;5047903;28;20063;-61
2022/03/05 05:58:38;;;;;;;;;;;3.80;99.90;;;;;;5050689;28;20083;-61
2022/03/05 06:01:03;;;;;;;0.00;0.00;;;3.70;99.90;;;;;;5035174;28;19911;-60
2022/03/05 06:03:32;;;;;;;0.00;0.00;;;3.60;99.90;;;;;;5050680;28;20036;-61
2022/03/05 06:05:58;;;;;;;0.00;0.00;;;3.70;99.90;;;;;;5037583;28;20391;-60
2022/03/05 06:08:24;;;;;;;0.00;0.00;;;3.80;99.90;;;;;;5049288;28;20047;-60
2022/03/05 06:10:51;;;;;;;0.00;0.00;;;3.80;99.90;;;;;;5046712;28;20033;-60
2022/03/05 06:13:17;;;;;;;0.00;0.00;;;3.90;99.90;;;;;;5047544;28;20107;-60
2022/03/05 06:15:44;;;;;;;0.00;0.00;;;4.10;99.90;;;;;;5036022;28;20083;-60
2022/03/05 06:18:10;;;;;;;0.00;0.00;;;4.20;99.90;;;;;;5053562;28;20131;-61
2022/03/05 06:20:36;;;;;;;0.00;0.00;;;4.30;99.90;;;;;;5054075;28;20068;-60
2022/03/05 06:23:02;;;;;;;;;;;4.40;99.90;;;;;;5050595;28;20048;-60
2022/03/05 06:25:28;;;;;;;0.00;0.00;;;4.40;99.90;;;;;;5054806;28;19913;-61
2022/03/05 06:27:53;;;;;;;0.00;0.00;;;4.50;99.90;;;;;;5049926;28;20028;-61
2022/03/05 06:30:19;;;;;;;0.00;0.00;;;4.60;99.90;;;;;;5011108;28;20057;-60
2022/03/05 06:32:45;;;;;;;0.00;0.00;;;4.70;99.90;;;;;;5033957;28;20063;-61
2022/03/05 06:35:11;;;;;;;0.00;0.00;;;4.80;99.90;;;;;;5035234;28;20463;-61
2022/03/05 06:37:38;;;;;;;0.00;0.00;;;4.80;99.90;;;;;;5034873;28;20030;-60
2022/03/05 06:40:06;;;;;;;0.00;0.00;;;4.80;99.90;;;;;;5032983;28;20385;-60
2022/03/05 06:42:32;;;;;;;0.00;0.00;;;4.90;99.90;;;;;;5034292;28;20030;-60
2022/03/05 06:44:57;;;;;;;0.00;0.00;;;4.90;99.90;;;;;;5034441;28;20033;-61
2022/03/05 06:47:26;;;;;;;0.00;0.00;;;5.00;99.90;;;;;;5033851;28;20029;-60
2022/03/05 06:49:53;;;;;;;0.00;0.00;;;4.90;99.90;;;;;;5010776;28;20344;-60
2022/03/05 06:52:18;;;;;;;0.00;0.00;;;5.00;99.90;;;;;;5028355;28;20033;-60
2022/03/05 06:54:44;;;;;;;0.00;0.00;;;5.00;99.90;;;;;;5024771;28;20067;-61
2022/03/05 06:57:10;;;;;;;0.00;0.00;;;5.00;99.90;;;;;;5030905;28;20021;-61
2022/03/05 06:59:35;;;;;;;0.00;0.00;;;5.10;99.90;;;;;;5028004;28;20056;-60
2022/03/05 07:02:01;;;;;;;0.00;0.00;;;5.00;99.90;;;;;;5030001;28;20029;-60
2022/03/05 07:04:26;;;;;;;0.00;0.00;;;5.00;99.90;;;;;;5025451;28;20022;-61
2022/03/05 07:06:52;;;;;;;0.00;0.00;;;4.90;99.90;;;;;;5026927;28;20025;-61
2022/03/05 07:09:23;;;;;;;0.00;0.00;;;5.10;99.90;;;;;;5032042;28;20025;-62
2022/03/05 07:11:49;;;;;;;0.00;0.00;;;5.00;99.90;;;;;;5032844;28;20033;-60
2022/03/05 07:14:15;;;;;;;0.00;0.00;;;5.00;99.90;;;;;;5031871;28;20034;-62
2022/03/05 07:16:41;;;;;;;0.00;0.00;;;5.00;99.90;;;;;;5008006;28;20036;-61
2022/03/05 07:19:06;;;;;;;0.00;0.00;;;5.10;99.90;;;;;;5012278;28;20025;-60
2022/03/05 07:21:32;;;;;;;0.00;0.00;;;5.00;99.90;;;;;;5023661;28;20037;-61
2022/03/05 07:24:00;;;;;;;0.00;0.00;;;5.00;99.90;;;;;;5022269;28;20065;-59
2022/03/05 07:26:26;;;;;;;0.00;0.00;;;5.00;99.90;;;;;;5022462;28;20068;-61
2022/03/05 07:28:52;;;;;;;0.00;0.00;;;5.00;99.90;;;;;;5030525;28;20062;-59
2022/03/05 07:31:17;;;;;;;0.00;0.00;;;5.10;99.90;;;;;;5032495;28;20060;-60
2022/03/05 07:33:43;;;;;;;0.00;0.00;;;5.10;99.90;;;;;;5013121;28;20041;-60
2022/03/05 07:36:09;;;;;;;0.00;0.00;;;5.10;99.90;;;;;;5022065;28;20138;-60
2022/03/05 07:38:35;;;;;;;0.00;0.00;;;5.00;99.90;;;;;;5010361;28;20037;-60
2022/03/05 07:41:01;;;;;;;0.00;0.00;;;5.00;99.90;;;;;;5029102;28;20084;-61
2022/03/05 07:43:27;;;;;;;;;;;4.90;99.90;;;;;;5028597;28;20056;-61
2022/03/05 07:45:52;;;;;;;0.00;0.00;;;4.90;99.90;;;;;;5029202;28;20355;-61
2022/03/05 07:48:21;;;;;;;0.00;0.00;;;5.00;99.90;;;;;;5024114;28;20025;-60
2022/03/05 07:50:51;;;;;;;0.00;0.00;;;5.00;99.90;;;;;;5029755;28;20395;-60
2022/03/05 07:53:17;;;;;;;0.00;0.00;;;5.10;99.90;;;;;;5007352;28;20506;-62
2022/03/05 07:55:43;;;;;;;0.00;0.00;;;5.10;99.90;;;;;;5024101;28;20041;-61
2022/03/05 07:58:09;;;;;;;0.00;0.00;;;5.10;99.90;;;;;;5026209;28;20025;-62
2022/03/05 08:00:34;;;;;;;0.00;0.00;;;5.10;99.90;;;;;;5027766;28;20057;-60
2022/03/05 08:03:00;;;;;;;0.00;0.00;;;5.10;99.90;;;;;;5028945;28;20123;-61
2022/03/05 08:05:26;;;;;;;0.00;0.00;;;5.20;99.90;;;;;;5026085;28;20111;-60
2022/03/05 08:07:54;;;;;;;0.00;0.00;;;5.30;99.90;;;;;;5024705;28;20034;-61
2022/03/05 08:10:20;;;;;;;0.00;0.00;;;5.30;99.90;;;;;;5030013;28;20029;-66
2022/03/05 08:12:46;;;;;;;0.00;0.00;;;5.40;99.90;;;;;;5029081;28;20033;-61
2022/03/05 08:15:12;;;;;;;0.00;0.00;;;5.50;99.90;;;;;;5023672;28;20040;-61
2022/03/05 08:17:50;;;;;;;0.00;0.00;;;5.50;99.90;;;;;;5020602;28;20472;-61
2022/03/05 08:20:17;;;;;;;0.00;0.00;;;5.50;99.90;;;;;;5008623;28;20120;-60
2022/03/05 08:22:43;;;;;;;0.00;0.00;;;5.50;99.90;;;;;;5025226;28;20041;-60
2022/03/05 08:25:12;;;;;;;0.00;0.00;;;5.50;99.90;;;;;;5024731;28;20021;-63
2022/03/05 08:27:38;;;;;;;0.00;0.00;;;5.50;99.90;;;;;;5027555;28;20037;-61
2022/03/05 08:30:04;;;;;;;;;;;5.60;99.90;;;;;;5028459;28;20510;-62
2022/03/05 08:32:30;;;;;;;0.00;0.00;;;5.60;99.90;;;;;;5028460;28;19914;-59
2022/03/05 08:34:55;;;;;;;0.00;0.00;;;5.70;99.90;;;;;;5032161;28;20040;-60
2022/03/05 08:37:21;;;;;;;0.00;0.00;;;5.80;99.90;;;;;;5028330;28;20093;-61
2022/03/05 08:39:46;;;;;;;0.00;0.00;;;6.00;99.90;;;;;;5031722;28;20053;-61
2022/03/05 08:42:12;;;;;;;0.00;0.00;;;6.00;99.90;;;;;;5031404;28;20087;-60
2022/03/05 08:44:38;;;;;;;0.00;0.00;;;6.10;99.90;;;;;;5030410;28;20428;-60
2022/03/05 08:47:04;;;;;;;0.00;0.00;;;6.10;99.90;;;;;;5029893;28;20022;-61
2022/03/05 08:49:30;;;;;;;0.00;0.00;;;6.10;99.90;;;;;;5027261;28;20028;-60
2022/03/05 08:51:55;;;;;;;0.00;0.00;;;6.20;99.90;;;;;;5031367;28;20507;-61
2022/03/05 08:54:22;;;;;;;0.00;0.00;;;6.20;99.90;;;;;;5029563;28;20040;-61
2022/03/05 08:56:48;;;;;;;0.00;0.00;;;6.30;99.90;;;;;;5004204;28;20026;-61
2022/03/05 08:59:14;;;;;;;0.00;0.00;;;6.40;99.90;;;;;;5028524;28;20021;-61
2022/03/05 09:01:40;;;;;;;0.00;0.00;;;6.40;99.90;;;;;;5031833;28;20406;-62
2022/03/05 09:04:06;;;;;;;0.00;0.00;;;6.30;99.90;;;;;;5032334;28;20041;-60
2022/03/05 09:06:32;;;;;;;0.00;0.00;;;6.40;99.90;;;;;;5011291;28;20611;-61
2022/03/05 09:09:00;;;;;;;0.00;0.00;;;6.50;99.90;;;;;;5028604;28;20022;-61
2022/03/05 09:11:25;;;;;;;0.00;0.00;;;6.60;99.90;;;;;;5028966;28;20109;-62
2022/03/05 09:13:52;;;;;;;0.00;0.00;;;6.60;99.90;;;;;;5029898;28;20104;-61
2022/03/05 09:16:17;;;;;;;;;;;6.60;99.90;;;;;;5029218;28;20167;-61
2022/03/05 09:18:43;;;;;;;0.00;0.00;;;6.70;99.90;;;;;;5031912;28;20004;-62
2022/03/05 09:21:09;;;;;;;0.00;0.00;;;6.80;99.90;;;;;;5028930;28;20037;-61
2022/03/05 09:23:34;;;;;;;0.00;0.00;;;6.80;99.90;;;;;;5025968;28;20055;-62
2022/03/05 09:26:00;;;;;;;0.00;0.00;;;6.70;99.90;;;;;;5028168;28;20026;-62
2022/03/05 09:28:26;;;;;;;0.00;0.00;;;6.80;99.90;;;;;;5032809;28;20036;-61
2022/03/05 09:30:51;;;;;;;0.00;0.00;;;6.80;99.90;;;;;;5028999;28;20038;-61
2022/03/05 09:33:19;;;;;;;0.00;0.00;;;6.70;99.90;;;;;;5027770;28;20037;-60
2022/03/05 09:35:45;;;;;;;0.00;0.00;;;6.70;99.90;;;;;;5025566;28;20107;-61
2022/03/05 09:38:11;;;;;;;0.00;0.00;;;6.70;99.90;;;;;;5029627;28;20072;-60
2022/03/05 09:40:36;;;;;;;0.00;0.00;;;6.70;99.90;;;;;;5008807;28;20136;-61
2022/03/05 09:43:03;;;;;;;0.00;0.00;;;6.60;99.90;;;;;;5026223;28;20112;-62
2022/03/05 09:45:29;;;;;;;0.00;0.00;;;6.80;99.90;;;;;;5023100;28;20041;-61
2022/03/05 09:47:56;;;;;;;0.00;0.00;;;6.90;99.90;;;;;;5022701;28;20033;-62
2022/03/05 09:50:24;;;;;;;0.00;0.00;;;6.90;99.90;;;;;;5024641;28;20041;-61
2022/03/05 09:52:50;;;;;;;0.00;0.00;;;6.90;99.90;;;;;;5026931;28;20048;-61
2022/03/05 09:55:18;;;;;;;0.00;0.00;;;6.90;99.90;;;;;;5028040;28;20022;-61
2022/03/05 09:57:44;;;;;;;0.00;0.00;;;6.90;99.90;;;;;;5024149;28;20399;-62
2022/03/05 10:00:10;;;;;;;0.00;0.00;;;6.90;99.90;;;;;;5025808;28;20060;-60
2022/03/05 10:02:35;;;;;;;0.00;0.00;;;6.90;99.90;;;;;;5029683;28;20039;-61
2022/03/05 10:05:31;;;;;;;0.00;0.00;;;6.80;99.90;;;;;;5029589;28;20049;-62
2022/03/05 10:08:13;;;;;;;0.00;0.00;;;6.80;99.90;;;;;;5008871;28;20136;-62
2022/03/05 10:11:05;;;;;;;0.00;0.00;;;6.90;99.90;;;;;;5009959;28;20033;-61
2022/03/05 10:13:32;;;;;;;0.00;0.00;;;6.90;99.90;;;;;;5025846;28;20514;-63
2022/03/05 10:16:01;;;;;;;0.00;0.00;;;6.90;99.90;;;;;;5032408;28;20061;-61
2022/03/05 10:18:30;;;;;;;0.00;0.00;;;6.80;99.90;;;;;;5030262;28;20347;-62
2022/03/05 10:20:56;;;;;;;0.00;0.00;;;6.90;99.90;;;;;;5031620;28;20063;-62
2022/03/05 10:23:22;;;;;;;0.00;0.00;;;7.10;99.90;;;;;;5033789;28;20502;-61
2022/03/05 10:25:52;;;;;;;;;;;7.30;99.90;;;;;;5032656;28;20029;-61
2022/03/05 10:28:24;;;;;;;0.00;0.00;;;7.10;99.90;;;;;;5024949;28;19916;-61
2022/03/05 10:30:55;;;;;;;0.00;0.00;;;7.20;99.90;;;;;;5010098;28;20483;-62
2022/03/05 10:33:27;;;;;;;0.00;0.00;;;7.20;99.90;;;;;;5015947;28;20549;-61
2022/03/05 10:35:54;;;;;;;0.00;0.00;;;7.30;99.90;;;;;;5032901;28;20060;-61
2022/03/05 10:38:20;;;;;;;0.00;0.00;;;7.30;99.90;;;;;;5030448;28;20033;-61
2022/03/05 10:40:54;;;;;;;0.00;0.00;;;7.30;99.90;;;;;;5030090;28;20038;-61
2022/03/05 10:43:19;;;;;;;0.00;0.00;;;7.20;99.90;;;;;;5015939;28;20045;-60
2022/03/05 10:45:58;;;;;;;0.00;0.00;;;7.20;99.90;;;;;;5029460;28;20022;-61
2022/03/05 10:48:31;;;;;;;0.00;0.00;;;7.20;99.90;;;;;;5029441;28;20374;-66
2022/03/05 10:51:17;;;;;;;0.00;0.00;;;7.30;99.90;;;;;;5028982;28;20395;-61
2022/03/05 10:53:47;;;;;;;0.00;0.00;;;7.30;99.90;;;;;;5031842;28;20029;-61
2022/03/05 10:56:21;;;;;;;0.00;0.00;;;7.10;99.90;;;;;;5014163;28;20128;-63
2022/03/05 10:59:03;;;;;;;0.00;0.00;;;7.10;99.90;;;;;;5033718;28;20029;-61
2022/03/05 11:01:30;;;;;;;0.00;0.00;;;7.00;99.90;;;;;;5031649;28;20505;-61
2022/03/05 11:03:57;;;;;;;0.00;0.00;;;7.00;99.90;;;;;;5032654;28;20053;-60
2022/03/05 11:06:24;;;;;;;0.00;0.00;;;7.00;99.90;;;;;;5015424;28;20022;-62
2022/03/05 11:08:50;;;;;;;0.00;0.00;;;7.10;99.90;;;;;;5030468;28;20030;-62
2022/03/05 11:11:18;;;;;;;0.00;0.00;;;7.10;99.90;;;;;;5016330;28;20037;-61
2022/03/05 11:13:43;;;;;;;0.00;0.00;;;7.30;99.90;;;;;;5027958;28;20033;-61
2022/03/05 11:16:10;;;;;;;0.00;0.00;;;7.40;99.90;;;;;;5031535;28;20026;-62
2022/03/05 11:18:42;;;;;;;0.00;0.00;;;7.30;99.90;;;;;;5028694;28;20025;-61
2022/03/05 11:21:09;;;;;;;0.00;0.00;;;7.30;99.90;;;;;;5015503;28;20125;-63
2022/03/05 11:23:37;;;;;;;0.00;0.00;;;7.20;99.90;;;;;;5028500;28;20036;-62
2022/03/05 11:26:08;;;;;;;0.00;0.00;;;7.10;99.90;;;;;;5028217;28;20094;-62
2022/03/05 11:28:39;;;;;;;0.00;0.00;;;7.20;99.90;;;;;;5014306;28;20143;-62
2022/03/05 11:31:34;;;;;;;0.00;0.00;;;7.40;99.90;;;;;;5029839;28;20054;-62
2022/03/05 11:34:14;;;;;;;0.00;0.00;;;7.40;99.90;;;;;;5028565;28;20029;-62
2022/03/05 11:36:42;;;;;;;0.00;0.00;;;7.50;99.90;;;;;;5031216;28;20052;-62
2022/03/05 11:39:27;;;;;;;0.00;0.00;;;7.50;99.90;;;;;;5028283;28;20033;-62
2022/03/05 11:42:04;;;;;;;0.00;0.00;;;7.70;99.90;;;;;;5024934;28;20109;-61
2022/03/05 11:44:35;;;;;;;0.00;0.00;;;7.80;99.90;;;;;;5022908;28;20021;-62
2022/03/05 11:47:27;;;;;;;0.00;0.00;;;7.60;99.90;;;;;;5031050;28;20021;-63
2022/03/05 11:49:56;;;;;;;0.00;0.00;;;7.70;99.90;;;;;;5030322;28;20079;-63
2022/03/05 11:52:22;;;;;;;0.00;0.00;;;7.70;99.90;;;;;;5013835;28;20182;-62
2022/03/05 11:55:14;;;;;;;0.00;0.00;;;7.60;99.90;;;;;;5025269;28;20029;-61
2022/03/05 11:57:52;;;;;;;0.00;0.00;;;7.70;99.90;;;;;;5006742;28;20037;-62
2022/03/05 12:00:25;;;;;;;0.00;0.00;;;7.60;99.90;;;;;;5028275;28;20034;-61
2022/03/05 12:02:55;;;;;;;0.00;0.00;;;7.70;99.90;;;;;;5029734;28;20018;-60
2022/03/05 12:05:36;;;;;;;0.00;0.00;;;7.80;99.90;;;;;;5029828;28;20029;-61
2022/03/05 12:08:05;;;;;;;0.00;0.00;;;7.90;99.90;;;;;;5003482;28;20030;-62
2022/03/05 12:10:33;;;;;;;0.00;0.00;;;8.10;99.90;;;;;;5029126;28;20026;-61
2022/03/05 12:13:29;;;;;;;0.00;0.00;;;8.00;99.90;;;;;;5026314;28;20483;-61
2022/03/05 12:15:56;;;;;;;0.00;0.00;;;7.80;99.90;;;;;;5029040;28;20032;-62
2022/03/05 12:18:22;;;;;;;0.00;0.00;;;7.70;99.90;;;;;;5024427;28;20022;-61
2022/03/05 12:20:48;;;;;;;0.00;0.00;;;7.70;99.90;;;;;;5024986;28;20034;-57
2022/03/05 12:23:19;;;;;;;0.00;0.00;;;7.80;99.90;;;;;;5026629;28;20786;-63
2022/03/05 12:25:47;;;;;;;0.00;0.00;;;7.90;99.90;;;;;;5029748;28;20056;-60
2022/03/05 12:28:16;;;;;;;0.00;0.00;;;7.90;99.90;;;;;;5025271;28;20018;-63
2022/03/05 12:30:43;;;;;;;0.00;0.00;;;7.90;99.90;;;;;;5032252;28;20041;-63
2022/03/05 12:33:11;;;;;;;0.00;0.00;;;7.80;99.90;;;;;;5040309;28;20643;-63
2022/03/05 12:35:39;;;;;;;0.00;0.00;;;7.80;99.90;;;;;;5025986;28;20167;-61
2022/03/05 12:38:05;;;;;;;0.00;0.00;;;7.90;99.90;;;;;;5045792;28;20017;-63
2022/03/05 12:40:31;;;;;;;;;;;7.90;99.90;;;;;;5045808;28;20045;-62
2022/03/05 12:42:58;;;;;;;0.00;0.00;;;8.10;99.90;;;;;;5040284;28;20326;-61
2022/03/05 12:45:29;;;;;;;0.00;0.00;;;8.10;99.90;;;;;;5047987;28;20494;-63
2022/03/05 12:47:57;;;;;;;0.00;0.00;;;8.30;99.90;;;;;;5029039;28;20108;-61
2022/03/05 12:50:32;;;;;;;0.00;0.00;;;8.30;99.90;;;;;;5037856;28;20112;-61
2022/03/05 12:53:06;;;;;;;0.00;0.00;;;8.30;99.90;;;;;;5049468;28;20037;-62
2022/03/05 12:55:46;;;;;;;0.00;0.00;;;8.40;99.90;;;;;;5041525;28;20055;-62
2022/03/05 12:58:23;;;;;;;0.00;0.00;;;8.40;99.90;;;;;;5029697;28;20025;-61
2022/03/05 13:00:54;;;;;;;0.00;0.00;;;8.20;99.90;;;;;;5026708;28;20021;-62
2022/03/05 13:03:21;;;;;;;0.00;0.00;;;8.30;99.90;;;;;;5050780;28;20033;-60